sensor_id;sensor_type;location;lat;lon;timestamp;temperature;humidity
14119;DHT22;7138;49.246;9.100;2022-10-26T00:00:21;11.30;99.90
14119;DHT22;7138;49.246;9.100;2022-10-26T00:02:47;11.20;99.90
14119;DHT22;7138;49.246;9.100;2022-10-26T00:05:13;11.30;99.90
14119;DHT22;7138;49.246;9.100;2022-10-26T00:07:40;11.20;99.90
14119;DHT22;7138;49.246;9.100;2022-10-26T00:10:07;11.20;99.90
14119;DHT22;7138;49.246;9.100;2022-10-26T00:12:33;11.10;99.90
14119;DHT22;7138;49.246;9.100;2022-10-26T00:14:59;11.10;99.90
14119;DHT22;7138;49.246;9.100;2022-10-26T00:17:25;11.00;99.90
14119;DHT22;7138;49.246;9.100;2022-10-26T00:19:51;11.10;99.90
14119;DHT22;7138;49.246;9.100;2022-10-26T00:22:17;11.10;99.90
14119;DHT22;7138;49.246;9.100;2022-10-26T00:24:44;11.10;99.90
14119;DHT22;7138;49.246;9.100;2022-10-26T00:27:10;11.10;99.90
14119;DHT22;7138;49.246;9.100;2022-10-26T00:29:36;11.10;99.90
14119;DHT22;7138;49.246;9.100;2022-10-26T00:32:02;11.10;99.90
14119;DHT22;7138;49.246;9.100;2022-10-26T00:34:28;11.10;99.90
14119;DHT22;7138;49.246;9.100;2022-10-26T00:36:53;11.10;99.90
14119;DHT22;7138;49.246;9.100;2022-10-26T00:39:19;11.10;99.90
14119;DHT22;7138;49.246;9.100;2022-10-26T00:41:47;11.10;99.90
14119;DHT22;7138;49.246;9.100;2022-10-26T00:44:53;11.10;99.90
14119;DHT22;7138;49.246;9.100;2022-10-26T00:47:29;11.00;99.90
14119;DHT22;7138;49.246;9.100;2022-10-26T00:50:01;11.00;99.90
14119;DHT22;7138;49.246;9.100;2022-10-26T00:52:31;11.10;99.90
14119;DHT22;7138;49.246;9.100;2022-10-26T00:54:58;11.10;99.90
14119;DHT22;7138;49.246;9.100;2022-10-26T00:57:26;11.00;99.90
14119;DHT22;7138;49.246;9.100;2022-10-26T00:59:53;11.00;99.90
14119;DHT22;7138;49.246;9.100;2022-10-26T01:02:21;11.10;99.90
14119;DHT22;7138;49.246;9.100;2022-10-26T01:04:48;11.00;99.90
14119;DHT22;7138;49.246;9.100;2022-10-26T01:07:15;11.00;99.90
14119;DHT22;7138;49.246;9.100;2022-10-26T01:09:41;11.00;99.90
14119;DHT22;7138;49.246;9.100;2022-10-26T01:12:07;11.00;99.90
14119;DHT22;7138;49.246;9.100;2022-10-26T01:14:34;11.00;99.90
14119;DHT22;7138;49.246;9.100;2022-10-26T01:17:07;11.00;99.90
14119;DHT22;7138;49.246;9.100;2022-10-26T01:20:17;11.00;99.90
14119;DHT22;7138;49.246;9.100;2022-10-26T01:22:58;11.10;99.90
14119;DHT22;7138;49.246;9.100;2022-10-26T01:25:40;11.10;99.90
14119;DHT22;7138;49.246;9.100;2022-10-26T01:28:31;11.10;99.90
14119;DHT22;7138;49.246;9.100;2022-10-26T01:31:15;11.10;99.90
14119;DHT22;7138;49.246;9.100;2022-10-26T01:33:50;11.10;99.90
14119;DHT22;7138;49.246;9.100;2022-10-26T01:36:30;11.10;99.90
14119;DHT22;7138;49.246;9.100;2022-10-26T01:39:04;11.10;99.90
14119;DHT22;7138;49.246;9.100;2022-10-26T01:41:37;11.10;99.90
14119;DHT22;7138;49.246;9.100;2022-10-26T01:44:14;11.10;99.90
14119;DHT22;7138;49.246;9.100;2022-10-26T01:46:46;11.20;99.90
14119;DHT22;7138;49.246;9.100;2022-10-26T01:49:19;11.20;99.90
14119;DHT22;7138;49.246;9.100;2022-10-26T01:51:48;11.10;99.90
14119;DHT22;7138;49.246;9.100;2022-10-26T01:54:15;11.10;99.90
14119;DHT22;7138;49.246;9.100;2022-10-26T01:56:43;11.10;99.90
14119;DHT22;7138;49.246;9.100;2022-10-26T01:59:33;11.10;99.90
14119;DHT22;7138;49.246;9.100;2022-10-26T02:05:40;11.20;99.90
14119;DHT22;7138;49.246;9.100;2022-10-26T02:08:25;11.20;99.90
14119;DHT22;7138;49.246;9.100;2022-10-26T02:11:01;11.20;99.90
14119;DHT22;7138;49.246;9.100;2022-10-26T02:13:41;11.30;99.90
14119;DHT22;7138;49.246;9.100;2022-10-26T02:16:19;11.20;99.90
14119;DHT22;7138;49.246;9.100;2022-10-26T02:18:52;11.30;99.90
14119;DHT22;7138;49.246;9.100;2022-10-26T02:21:30;11.20;99.90
14119;DHT22;7138;49.246;9.100;2022-10-26T02:24:02;11.30;99.90
14119;DHT22;7138;49.246;9.100;2022-10-26T02:26:32;11.20;99.90
14119;DHT22;7138;49.246;9.100;2022-10-26T02:29:00;11.20;99.90
14119;DHT22;7138;49.246;9.100;2022-10-26T02:31:32;11.20;99.90
14119;DHT22;7138;49.246;9.100;2022-10-26T02:34:02;11.20;99.90
14119;DHT22;7138;49.246;9.100;2022-10-26T02:36:35;11.20;99.90
14119;DHT22;7138;49.246;9.100;2022-10-26T02:39:09;11.20;99.90
14119;DHT22;7138;49.246;9.100;2022-10-26T02:41:38;11.20;99.90
14119;DHT22;7138;49.246;9.100;2022-10-26T02:44:10;11.10;99.90
14119;DHT22;7138;49.246;9.100;2022-10-26T02:46:42;11.20;99.90
14119;DHT22;7138;49.246;9.100;2022-10-26T02:49:09;11.20;99.90
14119;DHT22;7138;49.246;9.100;2022-10-26T02:51:39;11.30;99.90
14119;DHT22;7138;49.246;9.100;2022-10-26T02:54:13;11.20;99.90
14119;DHT22;7138;49.246;9.100;2022-10-26T02:56:46;11.30;99.90
14119;DHT22;7138;49.246;9.100;2022-10-26T02:59:18;11.30;99.90
14119;DHT22;7138;49.246;9.100;2022-10-26T03:01:49;11.30;99.90
14119;DHT22;7138;49.246;9.100;2022-10-26T03:04:16;11.30;99.90
14119;DHT22;7138;49.246;9.100;2022-10-26T03:06:51;11.30;99.90
14119;DHT22;7138;49.246;9.100;2022-10-26T03:09:17;11.30;99.90
14119;DHT22;7138;49.246;9.100;2022-10-26T03:11:43;11.40;99.90
14119;DHT22;7138;49.246;9.100;2022-10-26T03:14:09;11.40;99.90
14119;DHT22;7138;49.246;9.100;2022-10-26T03:16:34;11.40;99.90
14119;DHT22;7138;49.246;9.100;2022-10-26T03:19:00;11.40;99.90
14119;DHT22;7138;49.246;9.100;2022-10-26T03:21:26;11.40;99.90
14119;DHT22;7138;49.246;9.100;2022-10-26T03:23:54;11.40;99.90
14119;DHT22;7138;49.246;9.100;2022-10-26T03:26:23;11.40;99.90
14119;DHT22;7138;49.246;9.100;2022-10-26T03:28:49;11.40;99.90
14119;DHT22;7138;49.246;9.100;2022-10-26T03:31:14;11.40;99.90
14119;DHT22;7138;49.246;9.100;2022-10-26T03:33:40;11.40;99.90
14119;DHT22;7138;49.246;9.100;2022-10-26T03:36:07;11.40;99.90
14119;DHT22;7138;49.246;9.100;2022-10-26T03:38:34;11.40;99.90
14119;DHT22;7138;49.246;9.100;2022-10-26T03:41:01;11.50;99.90
14119;DHT22;7138;49.246;9.100;2022-10-26T03:43:27;11.50;99.90
14119;DHT22;7138;49.246;9.100;2022-10-26T03:45:52;11.40;99.90
14119;DHT22;7138;49.246;9.100;2022-10-26T03:48:18;11.50;99.90
14119;DHT22;7138;49.246;9.100;2022-10-26T03:50:44;11.50;99.90
14119;DHT22;7138;49.246;9.100;2022-10-26T03:53:10;11.50;99.90
14119;DHT22;7138;49.246;9.100;2022-10-26T03:55:36;11.50;99.90
14119;DHT22;7138;49.246;9.100;2022-10-26T03:58:03;11.50;99.90
14119;DHT22;7138;49.246;9.100;2022-10-26T04:00:29;11.50;99.90
14119;DHT22;7138;49.246;9.100;2022-10-26T04:02:56;11.50;99.90
14119;DHT22;7138;49.246;9.100;2022-10-26T04:05:25;11.50;99.90
14119;DHT22;7138;49.246;9.100;2022-10-26T04:07:53;11.50;99.90
14119;DHT22;7138;49.246;9.100;2022-10-26T04:10:20;11.50;99.90
14119;DHT22;7138;49.246;9.100;2022-10-26T04:12:46;11.50;99.90
14119;DHT22;7138;49.246;9.100;2022-10-26T04:15:13;11.50;99.90
14119;DHT22;7138;49.246;9.100;2022-10-26T04:17:40;11.50;99.90
14119;DHT22;7138;49.246;9.100;2022-10-26T04:20:07;11.50;99.90
14119;DHT22;7138;49.246;9.100;2022-10-26T04:22:34;11.50;99.90
14119;DHT22;7138;49.246;9.100;2022-10-26T04:25:01;11.40;99.90
14119;DHT22;7138;49.246;9.100;2022-10-26T04:27:26;11.40;99.90
14119;DHT22;7138;49.246;9.100;2022-10-26T04:29:52;11.40;99.90
14119;DHT22;7138;49.246;9.100;2022-10-26T04:32:19;11.40;99.90
14119;DHT22;7138;49.246;9.100;2022-10-26T04:34:45;11.40;99.90
14119;DHT22;7138;49.246;9.100;2022-10-26T04:37:11;11.40;99.90
14119;DHT22;7138;49.246;9.100;2022-10-26T04:39:37;11.40;99.90
14119;DHT22;7138;49.246;9.100;2022-10-26T04:42:03;11.30;99.90
14119;DHT22;7138;49.246;9.100;2022-10-26T04:44:29;11.30;99.90
14119;DHT22;7138;49.246;9.100;2022-10-26T04:46:55;11.20;99.90
14119;DHT22;7138;49.246;9.100;2022-10-26T04:49:22;11.20;99.90
14119;DHT22;7138;49.246;9.100;2022-10-26T04:51:48;11.20;99.90
14119;DHT22;7138;49.246;9.100;2022-10-26T04:54:14;11.20;99.90
14119;DHT22;7138;49.246;9.100;2022-10-26T04:56:40;11.10;99.90
14119;DHT22;7138;49.246;9.100;2022-10-26T04:59:06;11.20;99.90
14119;DHT22;7138;49.246;9.100;2022-10-26T05:01:32;11.20;99.90
14119;DHT22;7138;49.246;9.100;2022-10-26T05:03:58;11.10;99.90
14119;DHT22;7138;49.246;9.100;2022-10-26T05:06:25;11.10;99.90
14119;DHT22;7138;49.246;9.100;2022-10-26T05:08:51;11.10;99.90
14119;DHT22;7138;49.246;9.100;2022-10-26T05:11:16;11.10;99.90
14119;DHT22;7138;49.246;9.100;2022-10-26T05:13:42;11.10;99.90
14119;DHT22;7138;49.246;9.100;2022-10-26T05:16:08;11.10;99.90
14119;DHT22;7138;49.246;9.100;2022-10-26T05:18:34;11.10;99.90
14119;DHT22;7138;49.246;9.100;2022-10-26T05:21:00;11.00;99.90
14119;DHT22;7138;49.246;9.100;2022-10-26T05:23:27;11.10;99.90
14119;DHT22;7138;49.246;9.100;2022-10-26T05:25:54;11.10;99.90
14119;DHT22;7138;49.246;9.100;2022-10-26T05:28:21;11.10;99.90
14119;DHT22;7138;49.246;9.100;2022-10-26T05:30:47;11.10;99.90
14119;DHT22;7138;49.246;9.100;2022-10-26T05:33:13;11.10;99.90
14119;DHT22;7138;49.246;9.100;2022-10-26T05:35:39;11.10;99.90
14119;DHT22;7138;49.246;9.100;2022-10-26T05:38:06;11.20;99.90
14119;DHT22;7138;49.246;9.100;2022-10-26T05:40:34;11.10;99.90
14119;DHT22;7138;49.246;9.100;2022-10-26T05:43:00;11.10;99.90
14119;DHT22;7138;49.246;9.100;2022-10-26T05:45:26;11.10;99.90
14119;DHT22;7138;49.246;9.100;2022-10-26T05:47:52;11.10;99.90
14119;DHT22;7138;49.246;9.100;2022-10-26T05:50:18;11.20;99.90
14119;DHT22;7138;49.246;9.100;2022-10-26T05:52:45;11.20;99.90
14119;DHT22;7138;49.246;9.100;2022-10-26T05:55:14;11.20;99.90
14119;DHT22;7138;49.246;9.100;2022-10-26T05:57:44;11.20;99.90
14119;DHT22;7138;49.246;9.100;2022-10-26T06:00:15;11.20;99.90
14119;DHT22;7138;49.246;9.100;2022-10-26T06:02:52;11.20;99.90
14119;DHT22;7138;49.246;9.100;2022-10-26T06:05:27;11.20;99.90
14119;DHT22;7138;49.246;9.100;2022-10-26T06:08:05;11.20;99.90
14119;DHT22;7138;49.246;9.100;2022-10-26T06:10:34;11.20;99.90
14119;DHT22;7138;49.246;9.100;2022-10-26T06:13:02;11.20;99.90
14119;DHT22;7138;49.246;9.100;2022-10-26T06:15:31;11.20;99.90
14119;DHT22;7138;49.246;9.100;2022-10-26T06:18:15;11.20;99.90
14119;DHT22;7138;49.246;9.100;2022-10-26T06:20:58;11.20;99.90
14119;DHT22;7138;49.246;9.100;2022-10-26T06:23:41;11.20;99.90
14119;DHT22;7138;49.246;9.100;2022-10-26T06:26:17;11.30;99.90
14119;DHT22;7138;49.246;9.100;2022-10-26T06:29:02;11.30;99.90
14119;DHT22;7138;49.246;9.100;2022-10-26T06:31:39;11.30;99.90
14119;DHT22;7138;49.246;9.100;2022-10-26T06:34:05;11.30;99.90
14119;DHT22;7138;49.246;9.100;2022-10-26T06:36:31;11.40;99.90
14119;DHT22;7138;49.246;9.100;2022-10-26T06:39:00;11.40;99.90
14119;DHT22;7138;49.246;9.100;2022-10-26T06:41:31;11.40;99.90
14119;DHT22;7138;49.246;9.100;2022-10-26T06:44:02;11.40;99.90
14119;DHT22;7138;49.246;9.100;2022-10-26T06:46:35;11.40;99.90
14119;DHT22;7138;49.246;9.100;2022-10-26T06:49:12;11.40;99.90
14119;DHT22;7138;49.246;9.100;2022-10-26T06:51:48;11.40;99.90
14119;DHT22;7138;49.246;9.100;2022-10-26T06:54:22;11.50;99.90
14119;DHT22;7138;49.246;9.100;2022-10-26T06:56:53;11.50;99.90
14119;DHT22;7138;49.246;9.100;2022-10-26T06:59:30;11.50;99.90
14119;DHT22;7138;49.246;9.100;2022-10-26T07:02:01;11.50;99.90
14119;DHT22;7138;49.246;9.100;2022-10-26T07:04:27;11.60;99.90
14119;DHT22;7138;49.246;9.100;2022-10-26T07:06:53;11.60;99.90
14119;DHT22;7138;49.246;9.100;2022-10-26T07:09:21;11.60;99.90
14119;DHT22;7138;49.246;9.100;2022-10-26T07:11:47;11.60;99.90
14119;DHT22;7138;49.246;9.100;2022-10-26T07:14:13;11.60;99.90
14119;DHT22;7138;49.246;9.100;2022-10-26T07:16:40;11.60;99.90
14119;DHT22;7138;49.246;9.100;2022-10-26T07:19:06;11.60;99.90
14119;DHT22;7138;49.246;9.100;2022-10-26T07:21:32;11.70;99.90
14119;DHT22;7138;49.246;9.100;2022-10-26T07:23:58;11.70;99.90
14119;DHT22;7138;49.246;9.100;2022-10-26T07:26:24;11.80;99.90
14119;DHT22;7138;49.246;9.100;2022-10-26T07:28:50;11.80;99.90
14119;DHT22;7138;49.246;9.100;2022-10-26T07:31:16;11.80;99.90
14119;DHT22;7138;49.246;9.100;2022-10-26T07:33:43;11.80;99.90
14119;DHT22;7138;49.246;9.100;2022-10-26T07:36:09;11.80;99.90
14119;DHT22;7138;49.246;9.100;2022-10-26T07:38:35;11.80;99.90
14119;DHT22;7138;49.246;9.100;2022-10-26T07:41:02;11.80;99.90
14119;DHT22;7138;49.246;9.100;2022-10-26T07:43:28;11.80;99.90
14119;DHT22;7138;49.246;9.100;2022-10-26T07:45:54;11.90;99.90
14119;DHT22;7138;49.246;9.100;2022-10-26T07:48:20;11.90;99.90
14119;DHT22;7138;49.246;9.100;2022-10-26T07:50:47;11.90;99.90
14119;DHT22;7138;49.246;9.100;2022-10-26T07:53:13;11.90;99.90
14119;DHT22;7138;49.246;9.100;2022-10-26T07:55:39;12.00;99.90
14119;DHT22;7138;49.246;9.100;2022-10-26T07:58:05;12.00;99.90
14119;DHT22;7138;49.246;9.100;2022-10-26T08:00:31;12.00;99.90
14119;DHT22;7138;49.246;9.100;2022-10-26T08:02:57;12.10;99.90
14119;DHT22;7138;49.246;9.100;2022-10-26T08:05:23;12.20;99.90
14119;DHT22;7138;49.246;9.100;2022-10-26T08:07:50;12.30;99.90
14119;DHT22;7138;49.246;9.100;2022-10-26T08:10:16;12.40;99.90
14119;DHT22;7138;49.246;9.100;2022-10-26T08:12:42;12.50;99.90
14119;DHT22;7138;49.246;9.100;2022-10-26T08:15:09;12.50;99.90
14119;DHT22;7138;49.246;9.100;2022-10-26T08:17:36;12.70;99.90
14119;DHT22;7138;49.246;9.100;2022-10-26T08:20:02;12.70;99.90
14119;DHT22;7138;49.246;9.100;2022-10-26T08:22:28;12.80;99.90
14119;DHT22;7138;49.246;9.100;2022-10-26T08:24:56;12.80;99.90
14119;DHT22;7138;49.246;9.100;2022-10-26T08:27:22;12.90;99.90
14119;DHT22;7138;49.246;9.100;2022-10-26T08:29:48;13.00;99.90
14119;DHT22;7138;49.246;9.100;2022-10-26T08:32:14;13.10;99.90
14119;DHT22;7138;49.246;9.100;2022-10-26T08:34:39;13.20;99.90
14119;DHT22;7138;49.246;9.100;2022-10-26T08:37:05;13.40;99.90
14119;DHT22;7138;49.246;9.100;2022-10-26T08:39:31;13.50;99.90
14119;DHT22;7138;49.246;9.100;2022-10-26T08:42:02;13.70;99.90
14119;DHT22;7138;49.246;9.100;2022-10-26T08:44:37;13.70;99.90
14119;DHT22;7138;49.246;9.100;2022-10-26T08:47:12;13.70;99.90
14119;DHT22;7138;49.246;9.100;2022-10-26T08:49:47;13.70;99.90
14119;DHT22;7138;49.246;9.100;2022-10-26T08:52:23;13.60;99.90
14119;DHT22;7138;49.246;9.100;2022-10-26T08:54:54;13.60;99.90
14119;DHT22;7138;49.246;9.100;2022-10-26T08:57:28;13.70;99.90
14119;DHT22;7138;49.246;9.100;2022-10-26T09:00:03;13.70;99.90
14119;DHT22;7138;49.246;9.100;2022-10-26T09:02:31;13.70;99.90
14119;DHT22;7138;49.246;9.100;2022-10-26T09:04:58;13.80;99.90
14119;DHT22;7138;49.246;9.100;2022-10-26T09:07:35;13.80;99.90
14119;DHT22;7138;49.246;9.100;2022-10-26T09:10:23;13.90;99.90
14119;DHT22;7138;49.246;9.100;2022-10-26T09:13:04;14.00;99.90
14119;DHT22;7138;49.246;9.100;2022-10-26T09:15:47;14.10;99.90
14119;DHT22;7138;49.246;9.100;2022-10-26T09:18:30;14.20;99.90
14119;DHT22;7138;49.246;9.100;2022-10-26T09:21:15;14.50;99.90
14119;DHT22;7138;49.246;9.100;2022-10-26T09:23:57;14.70;99.90
14119;DHT22;7138;49.246;9.100;2022-10-26T09:26:32;14.90;99.90
14119;DHT22;7138;49.246;9.100;2022-10-26T09:29:11;15.00;99.90
14119;DHT22;7138;49.246;9.100;2022-10-26T09:31:40;15.20;99.90
14119;DHT22;7138;49.246;9.100;2022-10-26T09:34:15;15.40;99.90
14119;DHT22;7138;49.246;9.100;2022-10-26T09:36:52;15.50;99.90
14119;DHT22;7138;49.246;9.100;2022-10-26T09:39:24;15.50;99.90
14119;DHT22;7138;49.246;9.100;2022-10-26T09:41:59;15.60;99.90
14119;DHT22;7138;49.246;9.100;2022-10-26T09:44:38;15.70;99.90
14119;DHT22;7138;49.246;9.100;2022-10-26T09:47:13;15.90;99.90
14119;DHT22;7138;49.246;9.100;2022-10-26T09:49:48;16.20;99.90
14119;DHT22;7138;49.246;9.100;2022-10-26T09:52:17;16.70;99.90
14119;DHT22;7138;49.246;9.100;2022-10-26T09:54:44;17.10;99.90
14119;DHT22;7138;49.246;9.100;2022-10-26T09:57:14;17.30;99.90
14119;DHT22;7138;49.246;9.100;2022-10-26T09:59:45;17.30;99.90
14119;DHT22;7138;49.246;9.100;2022-10-26T10:02:34;17.50;99.90
14119;DHT22;7138;49.246;9.100;2022-10-26T10:05:01;17.80;99.90
14119;DHT22;7138;49.246;9.100;2022-10-26T10:07:41;18.00;99.90
14119;DHT22;7138;49.246;9.100;2022-10-26T10:10:10;18.20;99.90
14119;DHT22;7138;49.246;9.100;2022-10-26T10:12:41;18.30;99.90
14119;DHT22;7138;49.246;9.100;2022-10-26T10:15:16;18.60;99.90
14119;DHT22;7138;49.246;9.100;2022-10-26T10:17:47;18.70;99.90
14119;DHT22;7138;49.246;9.100;2022-10-26T10:20:16;18.70;99.90
14119;DHT22;7138;49.246;9.100;2022-10-26T10:22:55;18.90;99.90
14119;DHT22;7138;49.246;9.100;2022-10-26T10:25:30;19.00;99.90
14119;DHT22;7138;49.246;9.100;2022-10-26T10:27:59;19.10;99.90
14119;DHT22;7138;49.246;9.100;2022-10-26T10:30:29;19.20;99.90
14119;DHT22;7138;49.246;9.100;2022-10-26T10:33:04;19.10;99.90
14119;DHT22;7138;49.246;9.100;2022-10-26T10:35:32;19.10;99.90
14119;DHT22;7138;49.246;9.100;2022-10-26T10:37:58;19.20;99.90
14119;DHT22;7138;49.246;9.100;2022-10-26T10:40:26;19.30;99.90
14119;DHT22;7138;49.246;9.100;2022-10-26T10:43:03;19.30;99.90
14119;DHT22;7138;49.246;9.100;2022-10-26T10:45:33;19.30;99.90
14119;DHT22;7138;49.246;9.100;2022-10-26T10:48:02;19.50;99.90
14119;DHT22;7138;49.246;9.100;2022-10-26T10:50:30;19.50;99.90
14119;DHT22;7138;49.246;9.100;2022-10-26T10:53:15;19.20;99.90
14119;DHT22;7138;49.246;9.100;2022-10-26T10:55:56;19.20;99.90
14119;DHT22;7138;49.246;9.100;2022-10-26T10:58:38;19.40;99.90
14119;DHT22;7138;49.246;9.100;2022-10-26T11:01:13;19.40;99.90
14119;DHT22;7138;49.246;9.100;2022-10-26T11:03:54;19.70;99.90
14119;DHT22;7138;49.246;9.100;2022-10-26T11:06:35;19.80;99.90
14119;DHT22;7138;49.246;9.100;2022-10-26T11:09:06;20.00;99.90
14119;DHT22;7138;49.246;9.100;2022-10-26T11:11:40;19.90;99.90
14119;DHT22;7138;49.246;9.100;2022-10-26T11:14:12;19.90;99.90
14119;DHT22;7138;49.246;9.100;2022-10-26T11:16:46;20.00;99.90
14119;DHT22;7138;49.246;9.100;2022-10-26T11:19:21;20.10;99.90
14119;DHT22;7138;49.246;9.100;2022-10-26T11:21:52;20.30;99.90
14119;DHT22;7138;49.246;9.100;2022-10-26T11:24:23;20.40;99.90
14119;DHT22;7138;49.246;9.100;2022-10-26T11:26:55;20.40;99.90
14119;DHT22;7138;49.246;9.100;2022-10-26T11:29:32;20.60;99.90
14119;DHT22;7138;49.246;9.100;2022-10-26T11:32:10;20.70;99.90
14119;DHT22;7138;49.246;9.100;2022-10-26T11:34:45;20.80;99.90
14119;DHT22;7138;49.246;9.100;2022-10-26T11:37:23;20.80;99.90
14119;DHT22;7138;49.246;9.100;2022-10-26T11:40:01;20.50;99.90
14119;DHT22;7138;49.246;9.100;2022-10-26T11:42:36;20.20;99.90
14119;DHT22;7138;49.246;9.100;2022-10-26T11:45:12;20.00;99.90
14119;DHT22;7138;49.246;9.100;2022-10-26T11:47:48;19.90;99.90
14119;DHT22;7138;49.246;9.100;2022-10-26T11:50:20;19.80;99.90
14119;DHT22;7138;49.246;9.100;2022-10-26T11:52:53;20.10;99.90
14119;DHT22;7138;49.246;9.100;2022-10-26T11:55:23;20.50;99.90
14119;DHT22;7138;49.246;9.100;2022-10-26T11:57:51;20.70;99.90
14119;DHT22;7138;49.246;9.100;2022-10-26T12:00:20;20.90;99.90
14119;DHT22;7138;49.246;9.100;2022-10-26T12:02:54;20.90;99.90
14119;DHT22;7138;49.246;9.100;2022-10-26T12:05:34;20.80;99.90
14119;DHT22;7138;49.246;9.100;2022-10-26T12:08:14;20.50;99.90
14119;DHT22;7138;49.246;9.100;2022-10-26T12:10:51;20.30;99.90
14119;DHT22;7138;49.246;9.100;2022-10-26T12:13:31;20.30;99.90
14119;DHT22;7138;49.246;9.100;2022-10-26T12:16:08;20.30;99.90
14119;DHT22;7138;49.246;9.100;2022-10-26T12:18:45;20.30;99.90
14119;DHT22;7138;49.246;9.100;2022-10-26T12:21:17;19.90;99.90
14119;DHT22;7138;49.246;9.100;2022-10-26T12:23:53;19.60;99.90
14119;DHT22;7138;49.246;9.100;2022-10-26T12:26:49;19.50;99.90
14119;DHT22;7138;49.246;9.100;2022-10-26T12:29:36;19.50;99.90
14119;DHT22;7138;49.246;9.100;2022-10-26T12:35:37;19.80;99.90
14119;DHT22;7138;49.246;9.100;2022-10-26T12:41:24;20.70;99.90
14119;DHT22;7138;49.246;9.100;2022-10-26T12:43:55;20.50;99.90
14119;DHT22;7138;49.246;9.100;2022-10-26T12:46:40;20.30;99.90
14119;DHT22;7138;49.246;9.100;2022-10-26T12:52:44;19.70;99.90
14119;DHT22;7138;49.246;9.100;2022-10-26T12:55:47;19.70;99.90
14119;DHT22;7138;49.246;9.100;2022-10-26T12:58:49;19.90;99.90
14119;DHT22;7138;49.246;9.100;2022-10-26T13:01:55;20.20;99.90
14119;DHT22;7138;49.246;9.100;2022-10-26T13:04:49;20.50;99.90
14119;DHT22;7138;49.246;9.100;2022-10-26T13:07:26;20.70;99.90
14119;DHT22;7138;49.246;9.100;2022-10-26T13:10:03;21.00;99.90
14119;DHT22;7138;49.246;9.100;2022-10-26T13:12:37;21.00;99.90
14119;DHT22;7138;49.246;9.100;2022-10-26T13:15:23;21.20;99.90
14119;DHT22;7138;49.246;9.100;2022-10-26T13:17:58;21.30;99.90
14119;DHT22;7138;49.246;9.100;2022-10-26T13:20:28;21.40;99.90
14119;DHT22;7138;49.246;9.100;2022-10-26T13:22:56;21.40;99.90
14119;DHT22;7138;49.246;9.100;2022-10-26T13:25:25;21.40;99.90
14119;DHT22;7138;49.246;9.100;2022-10-26T13:28:02;21.40;99.90
14119;DHT22;7138;49.246;9.100;2022-10-26T13:30:43;21.20;99.90
14119;DHT22;7138;49.246;9.100;2022-10-26T13:33:30;21.20;99.90
14119;DHT22;7138;49.246;9.100;2022-10-26T13:36:02;21.10;99.90
14119;DHT22;7138;49.246;9.100;2022-10-26T13:38:37;21.10;99.90
14119;DHT22;7138;49.246;9.100;2022-10-26T13:41:11;20.90;99.90
14119;DHT22;7138;49.246;9.100;2022-10-26T13:43:45;20.70;99.90
14119;DHT22;7138;49.246;9.100;2022-10-26T13:46:22;20.70;99.90
14119;DHT22;7138;49.246;9.100;2022-10-26T13:48:54;20.70;99.90
14119;DHT22;7138;49.246;9.100;2022-10-26T13:51:34;20.70;99.90
14119;DHT22;7138;49.246;9.100;2022-10-26T13:54:17;20.70;99.90
14119;DHT22;7138;49.246;9.100;2022-10-26T13:57:00;20.70;99.90
14119;DHT22;7138;49.246;9.100;2022-10-26T13:59:32;20.60;99.90
14119;DHT22;7138;49.246;9.100;2022-10-26T14:02:07;20.60;99.90
14119;DHT22;7138;49.246;9.100;2022-10-26T14:04:45;20.70;99.90
14119;DHT22;7138;49.246;9.100;2022-10-26T14:07:15;20.70;99.90
14119;DHT22;7138;49.246;9.100;2022-10-26T14:09:49;20.70;99.90
14119;DHT22;7138;49.246;9.100;2022-10-26T14:12:18;20.70;99.90
14119;DHT22;7138;49.246;9.100;2022-10-26T14:14:44;20.70;99.90
14119;DHT22;7138;49.246;9.100;2022-10-26T14:17:19;20.80;99.90
14119;DHT22;7138;49.246;9.100;2022-10-26T14:19:47;20.80;99.90
14119;DHT22;7138;49.246;9.100;2022-10-26T14:22:19;20.80;99.90
14119;DHT22;7138;49.246;9.100;2022-10-26T14:24:51;20.80;99.90
14119;DHT22;7138;49.246;9.100;2022-10-26T14:27:22;20.70;99.90
14119;DHT22;7138;49.246;9.100;2022-10-26T14:29:49;20.70;99.90
14119;DHT22;7138;49.246;9.100;2022-10-26T14:32:20;20.60;99.90
14119;DHT22;7138;49.246;9.100;2022-10-26T14:34:47;20.50;99.90
14119;DHT22;7138;49.246;9.100;2022-10-26T14:37:28;20.50;99.90
14119;DHT22;7138;49.246;9.100;2022-10-26T14:40:02;20.60;99.90
14119;DHT22;7138;49.246;9.100;2022-10-26T14:42:34;20.60;99.90
14119;DHT22;7138;49.246;9.100;2022-10-26T14:45:05;20.60;99.90
14119;DHT22;7138;49.246;9.100;2022-10-26T14:47:48;20.60;99.90
14119;DHT22;7138;49.246;9.100;2022-10-26T14:50:19;20.60;99.90
14119;DHT22;7138;49.246;9.100;2022-10-26T14:52:49;20.50;99.90
14119;DHT22;7138;49.246;9.100;2022-10-26T14:55:18;20.50;99.90
14119;DHT22;7138;49.246;9.100;2022-10-26T14:57:47;20.40;99.90
14119;DHT22;7138;49.246;9.100;2022-10-26T15:00:17;20.30;99.90
14119;DHT22;7138;49.246;9.100;2022-10-26T15:02:46;20.30;99.90
14119;DHT22;7138;49.246;9.100;2022-10-26T15:05:24;20.30;99.90
14119;DHT22;7138;49.246;9.100;2022-10-26T15:07:53;20.30;99.90
14119;DHT22;7138;49.246;9.100;2022-10-26T15:10:45;20.30;99.90
14119;DHT22;7138;49.246;9.100;2022-10-26T15:13:20;20.20;99.90
14119;DHT22;7138;49.246;9.100;2022-10-26T15:15:51;20.20;99.90
14119;DHT22;7138;49.246;9.100;2022-10-26T15:18:21;20.20;99.90
14119;DHT22;7138;49.246;9.100;2022-10-26T15:20:51;20.10;99.90
14119;DHT22;7138;49.246;9.100;2022-10-26T15:23:18;19.90;99.90
14119;DHT22;7138;49.246;9.100;2022-10-26T15:25:51;19.80;99.90
14119;DHT22;7138;49.246;9.100;2022-10-26T15:28:23;19.80;99.90
14119;DHT22;7138;49.246;9.100;2022-10-26T15:31:02;19.60;99.90
14119;DHT22;7138;49.246;9.100;2022-10-26T15:33:30;19.50;99.90
14119;DHT22;7138;49.246;9.100;2022-10-26T15:36:13;19.40;99.90
14119;DHT22;7138;49.246;9.100;2022-10-26T15:38:42;19.30;99.90
14119;DHT22;7138;49.246;9.100;2022-10-26T15:41:14;19.30;99.90
14119;DHT22;7138;49.246;9.100;2022-10-26T15:43:46;19.20;99.90
14119;DHT22;7138;49.246;9.100;2022-10-26T15:46:13;19.10;99.90
14119;DHT22;7138;49.246;9.100;2022-10-26T15:48:39;18.90;99.90
14119;DHT22;7138;49.246;9.100;2022-10-26T15:51:06;18.80;99.90
14119;DHT22;7138;49.246;9.100;2022-10-26T15:53:35;18.60;99.90
14119;DHT22;7138;49.246;9.100;2022-10-26T15:56:01;18.60;99.90
14119;DHT22;7138;49.246;9.100;2022-10-26T15:58:30;18.50;99.90
14119;DHT22;7138;49.246;9.100;2022-10-26T16:00:58;18.30;99.90
14119;DHT22;7138;49.246;9.100;2022-10-26T16:03:24;18.20;99.90
14119;DHT22;7138;49.246;9.100;2022-10-26T16:05:55;18.10;99.90
14119;DHT22;7138;49.246;9.100;2022-10-26T16:08:23;18.00;99.90
14119;DHT22;7138;49.246;9.100;2022-10-26T16:10:52;17.90;99.90
14119;DHT22;7138;49.246;9.100;2022-10-26T16:13:18;17.80;99.90
14119;DHT22;7138;49.246;9.100;2022-10-26T16:15:44;17.70;99.90
14119;DHT22;7138;49.246;9.100;2022-10-26T16:18:11;17.60;99.90
14119;DHT22;7138;49.246;9.100;2022-10-26T16:20:37;17.50;99.90
14119;DHT22;7138;49.246;9.100;2022-10-26T16:23:03;17.50;99.90
14119;DHT22;7138;49.246;9.100;2022-10-26T16:25:33;17.30;99.90